Time;durP1;ratioP1;P1;durP2;ratioP2;P2;SDS_P1;SDS_P2;PMS_P1;PMS_P2;Temp;Humidity;BMP_temperature;BMP_pressure;BME280_temperature;BME280_humidity;BME280_pressure;Samples;Min_cycle;Max_cycle;Signal;HPM_P1;HPM_P2
2024/01/03 00:07:30;;;;;;;0.00;0.00;;;;;;;8.35;90.48;98351.25;15681065;28;20059;-43
2024/01/03 00:16:00;;;;;;;0.00;0.00;;;;;;;8.43;90.64;98356.16;15684966;28;20124;-44
2024/01/03 00:23:38;;;;;;;0.20;0.20;;;;;;;8.52;90.13;98348.47;15658225;28;20041;-43
2024/01/03 00:31:29;;;;;;;0.00;0.00;;;;;;;8.58;89.40;98344.78;15672046;28;20041;-45
2024/01/03 00:39:03;;;;;;;0.00;0.00;;;;;;;8.50;90.02;98335.38;15649773;28;20049;-43
2024/01/03 00:46:38;;;;;;;0.10;0.08;;;;;;;8.46;90.60;98326.25;15621666;22;20158;-46
2024/01/03 00:54:16;;;;;;;0.00;0.00;;;;;;;8.61;89.02;98336.25;15613065;28;20493;-48
2024/01/03 01:01:51;;;;;;;0.00;0.00;;;;;;;8.49;90.03;98341.78;15594997;28;20160;-50
2024/01/03 01:09:25;;;;;;;0.00;0.00;;;;;;;8.53;89.79;98353.56;15593723;28;20368;-47
2024/01/03 01:16:59;;;;;;;;;;;;;;;8.63;89.31;98352.84;15602054;28;20389;-50
2024/01/03 01:24:33;;;;;;;0.00;0.00;;;;;;;8.49;89.25;98368.53;15562313;28;19921;-48
2024/01/03 01:32:08;;;;;;;0.00;0.00;;;;;;;8.34;89.46;98354.97;15571871;28;20037;-45
2024/01/03 01:39:44;;;;;;;0.00;0.00;;;;;;;8.34;89.10;98373.69;15611499;28;20088;-45
2024/01/03 01:47:19;;;;;;;0.00;0.00;;;;;;;8.20;89.07;98367.94;15598213;28;20045;-46
2024/01/03 01:54:52;;;;;;;0.00;0.00;;;;;;;8.42;88.79;98373.25;15618191;28;20490;-46
2024/01/03 02:02:27;;;;;;;;;;;;;;;8.53;88.39;98380.28;15585099;28;20045;-46
2024/01/03 02:10:00;;;;;;;0.00;0.00;;;;;;;8.71;87.68;98387.13;15617295;28;20281;-47
2024/01/03 02:17:39;;;;;;;0.15;0.15;;;;;;;8.75;87.00;98382.88;15564206;28;20409;-48
2024/01/03 02:25:14;;;;;;;0.00;0.00;;;;;;;8.84;87.07;98386.69;15610468;28;20049;-45
2024/01/03 02:32:48;;;;;;;0.00;0.00;;;;;;;8.98;86.53;98378.22;15586769;28;20030;-46
2024/01/03 02:40:22;;;;;;;;;;;;;;;8.86;86.36;98379.25;15617360;28;20517;-49
2024/01/03 02:47:56;;;;;;;0.00;0.00;;;;;;;8.80;86.10;98390.13;15592102;28;19976;-45
2024/01/03 02:55:31;;;;;;;0.00;0.00;;;;;;;8.75;85.89;98382.88;15625193;28;20059;-45
2024/01/03 03:03:05;;;;;;;0.00;0.00;;;;;;;8.72;85.56;98383.41;15608021;28;20494;-46
2024/01/03 03:10:40;;;;;;;0.00;0.00;;;;;;;8.57;85.52;98393.97;15603968;28;20101;-50
2024/01/03 03:18:14;;;;;;;0.00;0.00;;;;;;;8.67;84.79;98396.72;15595599;28;20069;-46
2024/01/03 03:25:50;;;;;;;0.00;0.00;;;;;;;8.57;84.92;98404.66;15608056;28;20076;-46
2024/01/03 03:33:24;;;;;;;0.00;0.00;;;;;;;8.49;84.91;98399.81;15609368;28;20043;-46
2024/01/03 03:41:00;;;;;;;0.00;0.00;;;;;;;8.66;84.00;98409.28;15593148;28;20129;-44
2024/01/03 03:48:35;;;;;;;0.00;0.00;;;;;;;8.59;84.90;98398.00;15610269;28;20045;-48
2024/01/03 03:56:10;;;;;;;0.00;0.00;;;;;;;8.64;83.94;98400.72;15557516;28;20042;-47
2024/01/03 04:03:44;;;;;;;0.00;0.00;;;;;;;8.39;83.70;98360.38;15623029;28;20045;-45
2024/01/03 04:11:20;;;;;;;0.00;0.00;;;;;;;8.76;83.12;98397.06;15585994;28;20041;-46
2024/01/03 04:18:53;;;;;;;0.00;0.00;;;;;;;8.50;83.38;98402.22;15609275;28;20057;-46
2024/01/03 04:26:28;;;;;;;0.00;0.00;;;;;;;8.43;83.01;98391.72;15605239;28;20141;-46
2024/01/03 04:34:03;;;;;;;0.00;0.00;;;;;;;8.49;82.99;98407.81;15621090;28;20053;-47
2024/01/03 04:41:38;;;;;;;0.00;0.00;;;;;;;8.54;82.63;98414.00;15612844;28;20060;-46
2024/01/03 04:49:11;;;;;;;0.00;0.00;;;;;;;8.48;82.12;98416.88;15612179;28;20418;-46
2024/01/03 04:56:47;;;;;;;0.20;0.20;;;;;;;8.42;82.01;98413.34;15609089;28;20112;-46
2024/01/03 05:04:21;;;;;;;0.00;0.00;;;;;;;8.42;81.55;98424.06;15590594;28;20095;-48
2024/01/03 05:11:55;;;;;;;0.00;0.00;;;;;;;8.61;79.53;98419.94;15618716;28;20494;-46
2024/01/03 05:19:29;;;;;;;0.00;0.00;;;;;;;8.64;79.15;98430.16;15597011;28;20132;-45
2024/01/03 05:27:03;;;;;;;;;;;;;;;8.55;79.40;98439.69;15621690;28;20131;-45
2024/01/03 05:34:40;;;;;;;0.00;0.00;;;;;;;8.66;78.74;98454.75;15613828;28;20271;-48
2024/01/03 05:42:15;;;;;;;0.00;0.00;;;;;;;8.56;78.48;98443.16;15596990;28;20429;-50
2024/01/03 05:49:50;;;;;;;0.00;0.00;;;;;;;8.71;77.85;98455.84;15615341;28;20056;-50
2024/01/03 05:57:27;;;;;;;0.00;0.00;;;;;;;8.69;77.87;98456.94;15587876;28;20064;-45
2024/01/03 06:05:00;;;;;;;0.00;0.00;;;;;;;8.72;77.35;98454.78;15606344;28;20042;-50
2024/01/03 06:12:35;;;;;;;0.00;0.00;;;;;;;8.80;77.13;98463.16;15554190;28;20495;-46
2024/01/03 06:20:10;;;;;;;0.00;0.00;;;;;;;8.89;76.52;98461.63;15557814;28;20132;-49
2024/01/03 06:27:45;;;;;;;0.00;0.00;;;;;;;8.90;76.09;98481.16;15559749;28;20053;-48
2024/01/03 06:35:18;;;;;;;0.00;0.00;;;;;;;8.97;76.15;98503.19;15600979;28;20045;-47
2024/01/03 06:42:53;;;;;;;0.00;0.00;;;;;;;8.85;76.50;98516.72;15579356;28;20041;-49
2024/01/03 06:50:27;;;;;;;0.00;0.00;;;;;;;9.02;76.11;98521.16;15584131;28;20040;-50
2024/01/03 06:58:02;;;;;;;0.00;0.00;;;;;;;9.01;75.58;98536.41;15583591;28;20054;-49
2024/01/03 07:05:36;;;;;;;0.00;0.00;;;;;;;8.94;75.46;98535.78;15620044;28;20048;-51
2024/01/03 07:13:11;;;;;;;;;;;;;;;8.94;74.74;98541.94;15571140;28;20040;-49
2024/01/03 07:20:44;;;;;;;0.00;0.00;;;;;;;9.13;73.73;98530.88;15602160;28;20169;-52
2024/01/03 07:28:19;;;;;;;0.00;0.00;;;;;;;9.06;73.62;98546.34;15613454;28;20060;-59
2024/01/03 07:35:53;;;;;;;0.00;0.00;;;;;;;9.10;73.06;98542.91;15564270;28;20076;-51
2024/01/03 07:43:29;;;;;;;0.00;0.00;;;;;;;9.31;71.89;98556.44;15582778;28;20391;-50
2024/01/03 07:51:02;;;;;;;0.00;0.00;;;;;;;9.21;72.03;98546.47;15626110;28;20482;-49
2024/01/03 07:58:37;;;;;;;;;;;;;;;9.16;72.30;98552.59;15610489;28;20399;-49
2024/01/03 08:06:11;;;;;;;0.00;0.00;;;;;;;9.13;71.93;98574.50;15592595;28;19924;-49
2024/01/03 08:13:46;;;;;;;0.00;0.00;;;;;;;9.33;71.56;98554.34;15604585;28;20099;-50
2024/01/03 08:21:20;;;;;;;0.00;0.00;;;;;;;9.17;71.81;98570.25;15596081;28;20423;-50
2024/01/03 08:28:57;;;;;;;0.35;0.35;;;;;;;9.35;71.52;98561.03;15601529;28;20385;-51
2024/01/03 08:36:40;;;;;;;0.00;0.00;;;;;;;9.46;70.88;98569.94;15581412;28;20128;-51
2024/01/03 08:44:16;;;;;;;0.00;0.00;;;;;;;9.25;71.97;98563.63;15616972;28;20530;-51
2024/01/03 08:51:49;;;;;;;0.00;0.00;;;;;;;9.44;71.41;98577.44;15599695;28;20045;-51
2024/01/03 08:59:24;;;;;;;0.00;0.00;;;;;;;9.58;70.82;98575.94;15543831;28;20085;-53
2024/01/03 09:06:57;;;;;;;17.35;0.85;;;;;;;10.09;69.62;98586.19;15610685;28;20458;-52
2024/01/03 09:14:34;;;;;;;0.00;0.00;;;;;;;9.98;69.45;98588.00;15621951;28;20092;-51
2024/01/03 09:22:08;;;;;;;0.70;0.70;;;;;;;10.06;69.31;98586.69;15587841;28;20041;-52
2024/01/03 09:29:43;;;;;;;0.00;0.00;;;;;;;10.15;69.13;98593.97;15596350;28;20057;-52
2024/01/03 09:37:17;;;;;;;0.00;0.00;;;;;;;9.97;69.65;98605.13;15597913;28;20085;-51
2024/01/03 09:44:53;;;;;;;0.00;0.00;;;;;;;10.25;68.79;98592.47;15586734;28;20038;-52
2024/01/03 09:52:27;;;;;;;0.00;0.00;;;;;;;10.77;67.47;98589.72;15619887;28;20115;-52
2024/01/03 10:09:16;;;;;;;0.00;0.00;;;;;;;10.89;66.57;98590.28;15609495;28;20087;-52
2024/01/03 10:16:49;;;;;;;0.00;0.00;;;;;;;10.73;67.49;98586.75;15583521;28;20041;-52
2024/01/03 10:24:25;;;;;;;0.00;0.00;;;;;;;10.60;67.93;98597.19;15610208;28;20053;-56
2024/01/03 10:31:59;;;;;;;0.00;0.00;;;;;;;10.92;67.04;98588.97;15603421;28;20080;-51
2024/01/03 10:39:36;;;;;;;0.00;0.00;;;;;;;10.88;67.70;98579.81;15589319;28;20079;-52
2024/01/03 10:47:09;;;;;;;0.00;0.00;;;;;;;10.73;67.49;98583.28;15590403;28;20088;-51
2024/01/03 10:54:45;;;;;;;;;;;;;;;10.81;67.69;98588.09;15610317;28;20050;-52
2024/01/03 11:02:25;;;;;;;0.00;0.00;;;;;;;10.89;67.36;98584.13;15614691;28;20381;-50
2024/01/03 11:10:01;;;;;;;0.00;0.00;;;;;;;10.75;68.50;98572.28;15613120;28;20199;-51
2024/01/03 11:17:35;;;;;;;0.00;0.00;;;;;;;10.84;67.65;98565.31;15577579;28;20077;-52
2024/01/03 11:25:10;;;;;;;0.00;0.00;;;;;;;10.52;68.53;98560.13;15625087;28;20041;-52
2024/01/03 11:32:44;;;;;;;0.00;0.00;;;;;;;10.84;67.82;98550.03;15569694;28;20049;-53
2024/01/03 11:40:20;;;;;;;0.00;0.00;;;;;;;10.78;68.81;98563.69;15568721;28;20104;-55
2024/01/03 11:47:57;;;;;;;0.00;0.00;;;;;;;10.67;71.16;98552.13;15614990;28;20042;-52
2024/01/03 11:55:33;;;;;;;0.00;0.00;;;;;;;10.73;69.99;98546.50;15559430;28;20060;-52
2024/01/03 12:03:10;;;;;;;0.00;0.00;;;;;;;10.63;70.09;98540.28;15586393;28;20490;-51
2024/01/03 12:10:45;;;;;;;3.10;1.65;;;;;;;10.59;69.59;98539.25;15590030;28;20096;-50
2024/01/03 12:18:21;;;;;;;0.00;0.00;;;;;;;10.86;68.84;98533.63;15620831;28;20053;-52
2024/01/03 12:25:56;;;;;;;0.00;0.00;;;;;;;10.82;68.38;98524.50;15604483;28;20095;-51
2024/01/03 12:33:31;;;;;;;0.00;0.00;;;;;;;10.64;67.94;98529.31;15591018;28;20111;-54
2024/01/03 12:41:05;;;;;;;0.60;0.60;;;;;;;10.79;67.70;98522.38;15636014;22;20038;-50
2024/01/03 12:48:38;;;;;;;0.00;0.00;;;;;;;10.80;66.91;98508.69;15613116;28;20052;-45
2024/01/03 12:56:15;;;;;;;0.00;0.00;;;;;;;11.26;65.18;98502.53;15601971;28;20037;-46
2024/01/03 13:03:50;;;;;;;0.00;0.00;;;;;;;12.06;63.45;98503.47;15619270;28;20049;-48
2024/01/03 13:11:24;;;;;;;;;;;;;;;11.91;62.90;98512.41;15593680;28;20157;-50
2024/01/03 13:18:58;;;;;;;0.00;0.00;;;;;;;11.61;64.03;98499.81;15618908;28;19960;-50
2024/01/03 13:26:38;;;;;;;0.00;0.00;;;;;;;11.40;65.68;98504.41;15616711;28;20041;-50
2024/01/03 13:34:12;;;;;;;0.00;0.00;;;;;;;11.31;65.75;98505.22;15616748;28;20053;-49
2024/01/03 13:41:47;;;;;;;0.00;0.00;;;;;;;11.06;66.95;98520.25;15616540;28;20068;-47
2024/01/03 13:49:23;;;;;;;0.00;0.00;;;;;;;10.67;69.09;98534.13;15609677;28;20123;-52
2024/01/03 13:56:58;;;;;;;1.13;1.05;;;;;;;10.46;70.31;98533.28;15616065;28;20065;-47
2024/01/03 14:04:31;;;;;;;0.00;0.00;;;;;;;10.56;70.03;98545.13;15615892;28;20347;-48
2024/01/03 14:12:06;;;;;;;;;;;;;;;10.52;71.31;98549.41;15615970;28;20541;-49
2024/01/03 14:19:40;;;;;;;0.00;0.00;;;;;;;10.26;72.41;98572.63;15596350;28;19925;-45
2024/01/03 14:27:15;;;;;;;0.00;0.00;;;;;;;10.27;73.02;98568.88;15597954;28;20042;-47
2024/01/03 14:34:48;;;;;;;0.00;0.00;;;;;;;10.37;72.20;98583.13;15613451;28;20580;-50
2024/01/03 14:42:26;;;;;;;0.00;0.00;;;;;;;9.91;72.49;98576.69;15613771;28;20069;-46
2024/01/03 14:49:59;;;;;;;0.30;0.30;;;;;;;10.09;71.66;98594.22;15607190;28;20509;-49
2024/01/03 14:57:36;;;;;;;0.00;0.00;;;;;;;10.11;70.51;98597.44;15614232;28;20045;-47
2024/01/03 15:05:09;;;;;;;0.00;0.00;;;;;;;10.11;69.34;98603.59;15587657;28;20050;-50
2024/01/03 15:12:44;;;;;;;0.00;0.00;;;;;;;10.13;69.27;98606.84;15612441;28;20049;-48
2024/01/03 15:20:18;;;;;;;0.00;0.00;;;;;;;9.83;70.33;98618.16;15595206;28;20049;-47
2024/01/03 15:27:58;;;;;;;0.00;0.00;;;;;;;9.99;69.95;98620.97;15604653;28;20076;-49
2024/01/03 15:35:32;;;;;;;0.00;0.00;;;;;;;10.12;69.44;98615.16;15607606;28;20068;-52
2024/01/03 15:43:07;;;;;;;0.00;0.00;;;;;;;10.28;68.69;98610.72;15601043;28;20561;-48
2024/01/03 15:50:41;;;;;;;0.00;0.00;;;;;;;10.37;68.48;98615.31;15584544;28;20469;-45
2024/01/03 15:58:17;;;;;;;0.00;0.00;;;;;;;10.09;69.11;98607.63;15605144;28;20049;-49
2024/01/03 16:05:51;;;;;;;0.00;0.00;;;;;;;10.40;68.70;98605.97;15611875;28;20077;-50
2024/01/03 16:13:27;;;;;;;0.28;0.28;;;;;;;10.16;69.36;98611.69;15597463;28;20045;-48
2024/01/03 16:21:00;;;;;;;0.00;0.00;;;;;;;9.92;70.63;98605.09;15609065;28;20076;-49
2024/01/03 16:28:35;;;;;;;0.00;0.00;;;;;;;10.21;69.91;98598.31;15594782;28;20038;-48
2024/01/03 16:36:10;;;;;;;0.10;0.10;;;;;;;10.13;70.58;98588.09;15619066;28;20081;-52
2024/01/03 16:43:46;;;;;;;0.00;0.00;;;;;;;9.95;71.46;98585.84;15605463;28;20297;-49
2024/01/03 16:51:19;;;;;;;0.00;0.00;;;;;;;9.85;72.35;98593.81;15607669;28;20140;-47
2024/01/03 16:58:54;;;;;;;;;;;;;;;9.77;73.65;98597.78;15617532;28;20368;-47
2024/01/03 17:06:28;;;;;;;0.00;0.00;;;;;;;9.42;76.36;98599.13;15600417;28;19921;-49
2024/01/03 17:14:05;;;;;;;0.00;0.00;;;;;;;9.18;78.13;98595.16;15618855;28;20053;-49
2024/01/03 17:21:40;;;;;;;0.00;0.00;;;;;;;9.28;77.58;98595.25;15573315;28;20049;-50
2024/01/03 17:29:17;;;;;;;0.00;0.00;;;;;;;9.09;77.40;98602.84;15591230;28;20124;-52
2024/01/03 17:36:51;;;;;;;0.00;0.00;;;;;;;9.00;77.08;98590.16;15594478;28;20565;-50
2024/01/03 17:44:28;;;;;;;0.00;0.00;;;;;;;9.42;73.80;98587.63;15596007;28;20042;-49
2024/01/03 17:52:02;;;;;;;0.00;0.00;;;;;;;9.23;72.44;98584.47;15600690;28;20046;-48
2024/01/03 17:59:37;;;;;;;0.00;0.00;;;;;;;9.40;71.59;98581.69;15594026;28;20107;-47
2024/01/03 18:07:10;;;;;;;0.00;0.00;;;;;;;9.62;70.18;98578.94;15602988;28;20467;-44
2024/01/03 18:14:46;;;;;;;;;;;;;;;9.32;70.97;98584.81;15613815;28;20394;-45
2024/01/03 18:22:21;;;;;;;0.00;0.00;;;;;;;9.26;71.46;98588.53;15597369;28;19950;-49
2024/01/03 18:29:57;;;;;;;0.00;0.00;;;;;;;9.00;72.24;98584.78;15607062;28;20045;-48
2024/01/03 18:37:31;;;;;;;0.00;0.00;;;;;;;9.14;71.89;98584.16;15597161;28;20139;-46
2024/01/03 18:45:09;;;;;;;0.17;0.17;;;;;;;9.43;70.55;98565.94;15577284;28;20030;-46
2024/01/03 18:52:42;;;;;;;0.55;0.38;;;;;;;9.37;71.19;98579.50;15603271;28;20507;-48
2024/01/03 19:00:18;;;;;;;;;;;;;;;9.28;71.58;98568.50;15606203;28;20048;-52
2024/01/03 19:07:52;;;;;;;0.00;0.00;;;;;;;9.78;69.71;98559.19;15593126;28;19975;-50
2024/01/03 19:15:29;;;;;;;0.00;0.00;;;;;;;9.64;70.08;98563.38;15603596;28;20052;-51
2024/01/03 19:23:02;;;;;;;0.00;0.00;;;;;;;9.61;70.25;98562.06;15590067;28;20514;-54
2024/01/03 19:30:38;;;;;;;0.00;0.00;;;;;;;9.63;69.71;98553.75;15620492;28;20079;-48
2024/01/03 19:38:13;;;;;;;0.00;0.00;;;;;;;9.85;68.78;98556.31;15622237;28;20065;-50
2024/01/03 19:45:50;;;;;;;0.13;0.13;;;;;;;9.92;68.62;98554.19;15614552;28;20526;-52
2024/01/03 19:53:23;;;;;;;0.00;0.00;;;;;;;9.83;68.96;98553.88;15604199;28;20192;-54
2024/01/03 20:00:58;;;;;;;0.00;0.00;;;;;;;9.88;68.94;98543.19;15621248;28;20084;-52
2024/01/03 20:08:32;;;;;;;0.00;0.00;;;;;;;9.67;69.18;98546.81;15604767;28;20073;-50
2024/01/03 20:16:07;;;;;;;0.00;0.00;;;;;;;9.89;68.07;98555.53;15612959;28;20165;-49
2024/01/03 20:23:41;;;;;;;0.08;0.08;;;;;;;9.77;68.24;98556.78;15596912;28;20613;-48
2024/01/03 20:31:18;;;;;;;0.00;0.00;;;;;;;9.82;68.53;98560.28;15620317;28;20054;-52
2024/01/03 20:38:55;;;;;;;0.00;0.00;;;;;;;9.60;69.37;98567.63;15601495;28;20144;-50
2024/01/03 20:46:30;;;;;;;0.00;0.00;;;;;;;9.78;69.08;98561.06;15611698;28;20125;-50
2024/01/03 20:54:04;;;;;;;0.00;0.00;;;;;;;9.53;69.88;98561.72;15618393;28;20088;-53
2024/01/03 21:01:44;;;;;;;0.00;0.00;;;;;;;9.80;69.56;98556.28;15617579;28;20183;-49
2024/01/03 21:09:19;;;;;;;0.00;0.00;;;;;;;9.54;70.35;98550.75;15578672;28;20050;-47
2024/01/03 21:16:54;;;;;;;0.00;0.00;;;;;;;9.57;70.06;98558.28;15610903;28;20077;-51
2024/01/03 21:24:28;;;;;;;0.00;0.00;;;;;;;9.45;70.71;98562.97;15614641;28;20037;-53
2024/01/03 21:32:03;;;;;;;0.00;0.00;;;;;;;9.35;70.92;98557.56;15615834;28;20406;-49
2024/01/03 21:39:37;;;;;;;0.00;0.00;;;;;;;9.39;70.74;98556.78;15616246;28;20041;-47
2024/01/03 21:47:14;;;;;;;0.00;0.00;;;;;;;9.37;70.22;98558.09;15608347;28;20077;-49
2024/01/03 21:54:48;;;;;;;0.00;0.00;;;;;;;9.47;69.96;98555.53;15599630;28;20461;-52
2024/01/03 22:02:24;;;;;;;0.10;0.10;;;;;;;9.05;71.37;98561.59;15614661;28;20048;-49
2024/01/03 22:09:59;;;;;;;0.00;0.00;;;;;;;9.17;71.43;98564.09;15615259;28;20041;-51
2024/01/03 22:17:34;;;;;;;0.00;0.00;;;;;;;9.16;71.44;98565.16;15614231;28;20045;-49
2024/01/03 22:25:09;;;;;;;0.00;0.00;;;;;;;8.91;72.41;98563.06;15613990;28;20084;-48
2024/01/03 22:32:44;;;;;;;0.20;0.10;;;;;;;9.03;72.10;98562.91;15613419;28;20042;-49
2024/01/03 22:40:18;;;;;;;0.10;0.10;;;;;;;9.01;72.41;98562.34;15613304;28;20049;-50
2024/01/03 22:47:55;;;;;;;0.00;0.00;;;;;;;8.79;74.18;98563.19;15604725;28;20045;-50
2024/01/03 22:55:29;;;;;;;0.00;0.00;;;;;;;8.87;74.40;98567.31;15604739;28;20045;-50
2024/01/03 23:03:04;;;;;;;0.00;0.00;;;;;;;9.00;74.24;98558.03;15593278;28;20120;-50
2024/01/03 23:10:38;;;;;;;0.00;0.00;;;;;;;8.96;74.52;98559.63;15612122;28;20061;-50
2024/01/03 23:18:13;;;;;;;0.10;0.10;;;;;;;8.76;75.52;98560.22;15611412;28;20052;-50
2024/01/03 23:25:47;;;;;;;0.00;0.00;;;;;;;9.25;73.44;98544.91;15611010;28;20371;-48
2024/01/03 23:33:21;;;;;;;;;;;;;;;9.20;73.41;98550.22;15611798;28;20125;-50
2024/01/03 23:40:55;;;;;;;0.00;0.00;;;;;;;8.94;74.24;98549.97;15610548;28;19928;-50
2024/01/03 23:48:30;;;;;;;0.00;0.00;;;;;;;8.88;75.22;98548.31;15603021;28;20111;-49
2024/01/03 23:56:04;;;;;;;0.00;0.00;;;;;;;8.85;75.36;98559.50;15592933;28;20046;-51
